sensor_id;sensor_type;location;lat;lon;timestamp;temperature;humidity
9984;DHT22;16737;50.932;6.780;2023-04-24T00:02:15;14.60;91.80
9984;DHT22;16737;50.932;6.780;2023-04-24T00:04:42;14.60;91.70
9984;DHT22;16737;50.932;6.780;2023-04-24T00:07:10;14.60;91.70
9984;DHT22;16737;50.932;6.780;2023-04-24T00:09:38;14.60;91.70
9984;DHT22;16737;50.932;6.780;2023-04-24T00:12:06;14.60;91.70
9984;DHT22;16737;50.932;6.780;2023-04-24T00:14:36;14.60;91.70
9984;DHT22;16737;50.932;6.780;2023-04-24T00:17:06;14.60;91.70
9984;DHT22;16737;50.932;6.780;2023-04-24T00:19:34;14.50;91.70
9984;DHT22;16737;50.932;6.780;2023-04-24T00:22:02;14.50;91.70
9984;DHT22;16737;50.932;6.780;2023-04-24T00:24:29;14.50;91.90
9984;DHT22;16737;50.932;6.780;2023-04-24T00:26:56;14.50;91.60
9984;DHT22;16737;50.932;6.780;2023-04-24T00:29:23;14.50;91.60
9984;DHT22;16737;50.932;6.780;2023-04-24T00:31:55;14.50;91.60
9984;DHT22;16737;50.932;6.780;2023-04-24T00:34:22;14.50;91.60
9984;DHT22;16737;50.932;6.780;2023-04-24T00:36:50;14.50;91.50
9984;DHT22;16737;50.932;6.780;2023-04-24T00:39:17;14.50;91.50
9984;DHT22;16737;50.932;6.780;2023-04-24T00:41:45;14.50;91.50
9984;DHT22;16737;50.932;6.780;2023-04-24T00:44:13;14.50;91.50
9984;DHT22;16737;50.932;6.780;2023-04-24T00:46:41;14.50;91.50
9984;DHT22;16737;50.932;6.780;2023-04-24T00:49:10;14.40;91.40
9984;DHT22;16737;50.932;6.780;2023-04-24T00:51:38;14.50;91.40
9984;DHT22;16737;50.932;6.780;2023-04-24T00:54:13;14.40;91.40
9984;DHT22;16737;50.932;6.780;2023-04-24T00:56:40;14.40;91.40
9984;DHT22;16737;50.932;6.780;2023-04-24T00:59:12;14.50;91.50
9984;DHT22;16737;50.932;6.780;2023-04-24T01:01:39;14.40;91.40
9984;DHT22;16737;50.932;6.780;2023-04-24T01:04:07;14.40;91.30
9984;DHT22;16737;50.932;6.780;2023-04-24T01:06:39;14.40;91.30
9984;DHT22;16737;50.932;6.780;2023-04-24T01:09:06;14.40;91.20
9984;DHT22;16737;50.932;6.780;2023-04-24T01:11:34;14.30;91.10
9984;DHT22;16737;50.932;6.780;2023-04-24T01:14:01;14.30;91.00
9984;DHT22;16737;50.932;6.780;2023-04-24T01:16:29;14.30;91.00
9984;DHT22;16737;50.932;6.780;2023-04-24T01:18:56;14.30;90.90
9984;DHT22;16737;50.932;6.780;2023-04-24T01:21:26;14.20;90.80
9984;DHT22;16737;50.932;6.780;2023-04-24T01:23:58;14.20;90.80
9984;DHT22;16737;50.932;6.780;2023-04-24T01:26:25;14.20;90.80
9984;DHT22;16737;50.932;6.780;2023-04-24T01:28:52;14.10;90.70
9984;DHT22;16737;50.932;6.780;2023-04-24T01:31:20;14.10;90.60
9984;DHT22;16737;50.932;6.780;2023-04-24T01:33:47;14.00;90.50
9984;DHT22;16737;50.932;6.780;2023-04-24T01:36:14;14.00;90.80
9984;DHT22;16737;50.932;6.780;2023-04-24T01:38:43;13.90;90.40
9984;DHT22;16737;50.932;6.780;2023-04-24T01:41:12;13.90;90.40
9984;DHT22;16737;50.932;6.780;2023-04-24T01:43:39;13.80;90.30
9984;DHT22;16737;50.932;6.780;2023-04-24T01:46:06;13.70;90.30
9984;DHT22;16737;50.932;6.780;2023-04-24T01:48:34;13.70;90.30
9984;DHT22;16737;50.932;6.780;2023-04-24T01:51:02;13.60;90.30
9984;DHT22;16737;50.932;6.780;2023-04-24T01:53:29;13.50;90.30
9984;DHT22;16737;50.932;6.780;2023-04-24T01:55:56;13.50;90.30
9984;DHT22;16737;50.932;6.780;2023-04-24T01:58:25;13.40;90.30
9984;DHT22;16737;50.932;6.780;2023-04-24T02:00:53;13.40;90.20
9984;DHT22;16737;50.932;6.780;2023-04-24T02:03:23;13.30;90.20
9984;DHT22;16737;50.932;6.780;2023-04-24T02:05:50;13.20;90.20
9984;DHT22;16737;50.932;6.780;2023-04-24T02:08:17;13.10;90.20
9984;DHT22;16737;50.932;6.780;2023-04-24T02:10:44;13.10;90.30
9984;DHT22;16737;50.932;6.780;2023-04-24T02:13:11;13.00;90.30
9984;DHT22;16737;50.932;6.780;2023-04-24T02:15:39;13.00;90.40
9984;DHT22;16737;50.932;6.780;2023-04-24T02:18:06;12.90;90.40
9984;DHT22;16737;50.932;6.780;2023-04-24T02:20:33;12.90;90.50
9984;DHT22;16737;50.932;6.780;2023-04-24T02:23:00;12.80;90.50
9984;DHT22;16737;50.932;6.780;2023-04-24T02:25:27;12.80;90.60
9984;DHT22;16737;50.932;6.780;2023-04-24T02:27:54;12.80;90.60
9984;DHT22;16737;50.932;6.780;2023-04-24T02:30:21;12.80;90.70
9984;DHT22;16737;50.932;6.780;2023-04-24T02:32:50;12.70;90.70
9984;DHT22;16737;50.932;6.780;2023-04-24T02:35:17;12.70;90.70
9984;DHT22;16737;50.932;6.780;2023-04-24T02:37:44;12.70;90.80
9984;DHT22;16737;50.932;6.780;2023-04-24T02:40:11;12.70;90.80
9984;DHT22;16737;50.932;6.780;2023-04-24T02:42:38;12.70;90.80
9984;DHT22;16737;50.932;6.780;2023-04-24T02:45:06;12.70;90.90
9984;DHT22;16737;50.932;6.780;2023-04-24T02:47:33;12.70;90.90
9984;DHT22;16737;50.932;6.780;2023-04-24T02:50:02;12.70;90.90
9984;DHT22;16737;50.932;6.780;2023-04-24T02:52:29;12.70;90.90
9984;DHT22;16737;50.932;6.780;2023-04-24T02:54:56;12.70;90.90
9984;DHT22;16737;50.932;6.780;2023-04-24T02:57:23;12.70;91.00
9984;DHT22;16737;50.932;6.780;2023-04-24T02:59:50;12.70;91.00
9984;DHT22;16737;50.932;6.780;2023-04-24T03:02:17;12.70;91.00
9984;DHT22;16737;50.932;6.780;2023-04-24T03:04:44;12.70;91.00
9984;DHT22;16737;50.932;6.780;2023-04-24T03:07:14;12.70;91.00
9984;DHT22;16737;50.932;6.780;2023-04-24T03:09:41;12.70;91.00
9984;DHT22;16737;50.932;6.780;2023-04-24T03:12:08;12.60;91.00
9984;DHT22;16737;50.932;6.780;2023-04-24T03:14:35;12.70;91.00
9984;DHT22;16737;50.932;6.780;2023-04-24T03:17:02;12.60;91.00
9984;DHT22;16737;50.932;6.780;2023-04-24T03:19:29;12.60;91.00
9984;DHT22;16737;50.932;6.780;2023-04-24T03:21:56;12.60;91.00
9984;DHT22;16737;50.932;6.780;2023-04-24T03:24:25;12.60;91.00
9984;DHT22;16737;50.932;6.780;2023-04-24T03:26:53;12.60;91.00
9984;DHT22;16737;50.932;6.780;2023-04-24T03:29:22;12.60;91.00
9984;DHT22;16737;50.932;6.780;2023-04-24T03:31:49;12.60;91.00
9984;DHT22;16737;50.932;6.780;2023-04-24T03:34:16;12.60;90.90
9984;DHT22;16737;50.932;6.780;2023-04-24T03:36:43;12.60;90.90
9984;DHT22;16737;50.932;6.780;2023-04-24T03:39:12;12.50;90.90
9984;DHT22;16737;50.932;6.780;2023-04-24T03:41:41;12.50;90.90
9984;DHT22;16737;50.932;6.780;2023-04-24T03:44:08;12.50;90.90
9984;DHT22;16737;50.932;6.780;2023-04-24T03:46:34;12.50;90.90
9984;DHT22;16737;50.932;6.780;2023-04-24T03:49:01;12.50;90.90
9984;DHT22;16737;50.932;6.780;2023-04-24T03:51:28;12.50;91.00
9984;DHT22;16737;50.932;6.780;2023-04-24T03:53:56;12.50;91.00
9984;DHT22;16737;50.932;6.780;2023-04-24T03:56:23;12.50;91.00
9984;DHT22;16737;50.932;6.780;2023-04-24T03:58:52;12.50;91.00
9984;DHT22;16737;50.932;6.780;2023-04-24T04:01:19;12.40;91.00
9984;DHT22;16737;50.932;6.780;2023-04-24T04:03:46;12.40;91.00
9984;DHT22;16737;50.932;6.780;2023-04-24T04:06:14;12.40;90.90
9984;DHT22;16737;50.932;6.780;2023-04-24T04:08:41;12.40;91.00
9984;DHT22;16737;50.932;6.780;2023-04-24T04:11:07;12.40;91.00
9984;DHT22;16737;50.932;6.780;2023-04-24T04:13:34;12.40;91.00
9984;DHT22;16737;50.932;6.780;2023-04-24T04:16:03;12.40;91.00
9984;DHT22;16737;50.932;6.780;2023-04-24T04:18:30;12.40;91.10
9984;DHT22;16737;50.932;6.780;2023-04-24T04:20:57;12.40;91.10
9984;DHT22;16737;50.932;6.780;2023-04-24T04:23:24;12.30;91.10
9984;DHT22;16737;50.932;6.780;2023-04-24T04:25:51;12.40;91.20
9984;DHT22;16737;50.932;6.780;2023-04-24T04:28:18;12.30;91.20
9984;DHT22;16737;50.932;6.780;2023-04-24T04:30:46;12.30;91.10
9984;DHT22;16737;50.932;6.780;2023-04-24T04:33:14;12.40;91.30
9984;DHT22;16737;50.932;6.780;2023-04-24T04:35:41;12.40;91.30
9984;DHT22;16737;50.932;6.780;2023-04-24T04:38:08;12.40;91.30
9984;DHT22;16737;50.932;6.780;2023-04-24T04:40:36;12.40;91.30
9984;DHT22;16737;50.932;6.780;2023-04-24T04:43:03;12.40;91.30
9984;DHT22;16737;50.932;6.780;2023-04-24T04:45:31;12.40;91.30
9984;DHT22;16737;50.932;6.780;2023-04-24T04:47:59;12.40;91.30
9984;DHT22;16737;50.932;6.780;2023-04-24T04:50:29;12.40;91.30
9984;DHT22;16737;50.932;6.780;2023-04-24T04:52:56;12.40;91.70
9984;DHT22;16737;50.932;6.780;2023-04-24T04:55:23;12.40;91.30
9984;DHT22;16737;50.932;6.780;2023-04-24T04:57:51;12.40;91.30
9984;DHT22;16737;50.932;6.780;2023-04-24T05:00:18;12.40;91.30
9984;DHT22;16737;50.932;6.780;2023-04-24T05:02:46;12.40;91.30
9984;DHT22;16737;50.932;6.780;2023-04-24T05:05:13;12.50;91.30
9984;DHT22;16737;50.932;6.780;2023-04-24T05:07:43;12.50;91.30
9984;DHT22;16737;50.932;6.780;2023-04-24T05:10:11;12.50;91.30
9984;DHT22;16737;50.932;6.780;2023-04-24T05:12:38;12.50;91.50
9984;DHT22;16737;50.932;6.780;2023-04-24T05:15:06;12.50;91.30
9984;DHT22;16737;50.932;6.780;2023-04-24T05:17:34;12.50;91.30
9984;DHT22;16737;50.932;6.780;2023-04-24T05:20:01;12.50;91.30
9984;DHT22;16737;50.932;6.780;2023-04-24T05:22:28;12.50;91.30
9984;DHT22;16737;50.932;6.780;2023-04-24T05:24:57;12.50;91.20
9984;DHT22;16737;50.932;6.780;2023-04-24T05:27:24;12.50;91.30
9984;DHT22;16737;50.932;6.780;2023-04-24T05:29:51;12.50;91.30
9984;DHT22;16737;50.932;6.780;2023-04-24T05:32:19;12.50;91.30
9984;DHT22;16737;50.932;6.780;2023-04-24T05:34:46;12.50;91.30
9984;DHT22;16737;50.932;6.780;2023-04-24T05:37:13;12.50;91.30
9984;DHT22;16737;50.932;6.780;2023-04-24T05:39:40;12.50;91.30
9984;DHT22;16737;50.932;6.780;2023-04-24T05:42:08;12.50;91.40
9984;DHT22;16737;50.932;6.780;2023-04-24T05:44:35;12.50;91.40
9984;DHT22;16737;50.932;6.780;2023-04-24T05:47:03;12.50;91.40
9984;DHT22;16737;50.932;6.780;2023-04-24T05:49:30;12.50;91.40
9984;DHT22;16737;50.932;6.780;2023-04-24T05:51:57;12.50;91.40
9984;DHT22;16737;50.932;6.780;2023-04-24T05:54:24;12.40;91.40
9984;DHT22;16737;50.932;6.780;2023-04-24T05:56:51;12.40;91.40
9984;DHT22;16737;50.932;6.780;2023-04-24T05:59:21;12.40;91.40
9984;DHT22;16737;50.932;6.780;2023-04-24T06:01:48;12.50;91.50
9984;DHT22;16737;50.932;6.780;2023-04-24T06:04:15;12.50;91.50
9984;DHT22;16737;50.932;6.780;2023-04-24T06:06:42;12.40;91.50
9984;DHT22;16737;50.932;6.780;2023-04-24T06:09:08;12.40;91.50
9984;DHT22;16737;50.932;6.780;2023-04-24T06:11:35;12.30;91.40
9984;DHT22;16737;50.932;6.780;2023-04-24T06:14:02;12.40;91.60
9984;DHT22;16737;50.932;6.780;2023-04-24T06:16:31;12.40;91.70
9984;DHT22;16737;50.932;6.780;2023-04-24T06:18:58;12.40;91.80
9984;DHT22;16737;50.932;6.780;2023-04-24T06:21:25;12.40;91.70
9984;DHT22;16737;50.932;6.780;2023-04-24T06:23:53;12.40;91.70
9984;DHT22;16737;50.932;6.780;2023-04-24T06:26:21;12.40;91.70
9984;DHT22;16737;50.932;6.780;2023-04-24T06:28:50;12.40;91.70
9984;DHT22;16737;50.932;6.780;2023-04-24T06:31:19;12.30;91.70
9984;DHT22;16737;50.932;6.780;2023-04-24T06:33:48;12.40;91.70
9984;DHT22;16737;50.932;6.780;2023-04-24T06:36:15;12.30;91.80
9984;DHT22;16737;50.932;6.780;2023-04-24T06:38:43;12.30;91.80
9984;DHT22;16737;50.932;6.780;2023-04-24T06:41:10;12.30;91.80
9984;DHT22;16737;50.932;6.780;2023-04-24T06:43:38;12.20;91.90
9984;DHT22;16737;50.932;6.780;2023-04-24T06:46:05;12.20;91.90
9984;DHT22;16737;50.932;6.780;2023-04-24T06:48:32;12.10;91.90
9984;DHT22;16737;50.932;6.780;2023-04-24T06:51:00;12.10;91.90
9984;DHT22;16737;50.932;6.780;2023-04-24T06:53:27;12.10;92.10
9984;DHT22;16737;50.932;6.780;2023-04-24T06:55:54;12.00;92.00
9984;DHT22;16737;50.932;6.780;2023-04-24T06:58:22;12.00;92.10
9984;DHT22;16737;50.932;6.780;2023-04-24T07:00:49;12.00;92.30
9984;DHT22;16737;50.932;6.780;2023-04-24T07:03:15;11.90;92.40
9984;DHT22;16737;50.932;6.780;2023-04-24T07:05:42;12.00;92.50
9984;DHT22;16737;50.932;6.780;2023-04-24T07:08:11;11.90;92.50
9984;DHT22;16737;50.932;6.780;2023-04-24T07:10:38;11.90;92.60
9984;DHT22;16737;50.932;6.780;2023-04-24T07:13:05;11.80;92.50
9984;DHT22;16737;50.932;6.780;2023-04-24T07:15:33;11.90;92.60
9984;DHT22;16737;50.932;6.780;2023-04-24T07:18:00;11.80;92.60
9984;DHT22;16737;50.932;6.780;2023-04-24T07:20:27;11.80;92.80
9984;DHT22;16737;50.932;6.780;2023-04-24T07:22:54;11.80;92.80
9984;DHT22;16737;50.932;6.780;2023-04-24T07:25:23;11.80;92.80
9984;DHT22;16737;50.932;6.780;2023-04-24T07:27:50;11.70;92.80
9984;DHT22;16737;50.932;6.780;2023-04-24T07:30:17;11.70;92.70
9984;DHT22;16737;50.932;6.780;2023-04-24T07:32:44;11.70;92.60
9984;DHT22;16737;50.932;6.780;2023-04-24T07:35:10;11.60;92.70
9984;DHT22;16737;50.932;6.780;2023-04-24T07:37:37;11.60;92.50
9984;DHT22;16737;50.932;6.780;2023-04-24T07:40:06;11.50;92.60
9984;DHT22;16737;50.932;6.780;2023-04-24T07:42:35;11.50;92.70
9984;DHT22;16737;50.932;6.780;2023-04-24T07:45:02;11.40;92.60
9984;DHT22;16737;50.932;6.780;2023-04-24T07:47:29;11.40;92.60
9984;DHT22;16737;50.932;6.780;2023-04-24T07:49:56;11.30;92.60
9984;DHT22;16737;50.932;6.780;2023-04-24T07:52:23;11.30;92.60
9984;DHT22;16737;50.932;6.780;2023-04-24T07:54:50;11.20;92.50
9984;DHT22;16737;50.932;6.780;2023-04-24T07:57:24;11.20;92.50
9984;DHT22;16737;50.932;6.780;2023-04-24T07:59:52;11.10;92.50
9984;DHT22;16737;50.932;6.780;2023-04-24T08:02:19;11.10;92.60
9984;DHT22;16737;50.932;6.780;2023-04-24T08:04:51;11.00;92.50
9984;DHT22;16737;50.932;6.780;2023-04-24T08:07:18;10.90;92.60
9984;DHT22;16737;50.932;6.780;2023-04-24T08:09:45;10.90;92.60
9984;DHT22;16737;50.932;6.780;2023-04-24T08:12:12;10.90;92.60
9984;DHT22;16737;50.932;6.780;2023-04-24T08:14:39;10.80;92.60
9984;DHT22;16737;50.932;6.780;2023-04-24T08:17:08;10.80;92.60
9984;DHT22;16737;50.932;6.780;2023-04-24T08:19:35;10.70;92.60
9984;DHT22;16737;50.932;6.780;2023-04-24T08:22:01;10.70;92.60
9984;DHT22;16737;50.932;6.780;2023-04-24T08:24:29;10.60;92.60
9984;DHT22;16737;50.932;6.780;2023-04-24T08:26:56;10.50;92.70
9984;DHT22;16737;50.932;6.780;2023-04-24T08:29:24;10.50;92.70
9984;DHT22;16737;50.932;6.780;2023-04-24T08:31:52;10.40;92.60
9984;DHT22;16737;50.932;6.780;2023-04-24T08:34:21;10.40;92.70
9984;DHT22;16737;50.932;6.780;2023-04-24T08:36:49;10.30;92.70
9984;DHT22;16737;50.932;6.780;2023-04-24T08:39:17;10.30;92.80
9984;DHT22;16737;50.932;6.780;2023-04-24T08:41:44;10.20;92.80
9984;DHT22;16737;50.932;6.780;2023-04-24T08:44:12;10.20;92.90
9984;DHT22;16737;50.932;6.780;2023-04-24T08:46:43;10.10;92.90
9984;DHT22;16737;50.932;6.780;2023-04-24T08:49:11;10.20;93.10
9984;DHT22;16737;50.932;6.780;2023-04-24T08:51:43;10.10;93.00
9984;DHT22;16737;50.932;6.780;2023-04-24T08:54:12;10.10;93.20
9984;DHT22;16737;50.932;6.780;2023-04-24T08:56:40;10.10;93.20
9984;DHT22;16737;50.932;6.780;2023-04-24T08:59:10;10.10;93.20
9984;DHT22;16737;50.932;6.780;2023-04-24T09:01:38;10.10;93.30
9984;DHT22;16737;50.932;6.780;2023-04-24T09:04:07;10.10;93.40
9984;DHT22;16737;50.932;6.780;2023-04-24T09:06:36;10.10;93.80
9984;DHT22;16737;50.932;6.780;2023-04-24T09:09:05;10.10;93.40
9984;DHT22;16737;50.932;6.780;2023-04-24T09:11:32;10.10;93.60
9984;DHT22;16737;50.932;6.780;2023-04-24T09:14:00;10.10;93.60
9984;DHT22;16737;50.932;6.780;2023-04-24T09:16:28;10.10;93.70
9984;DHT22;16737;50.932;6.780;2023-04-24T09:18:55;10.10;94.00
9984;DHT22;16737;50.932;6.780;2023-04-24T09:21:22;10.10;93.80
9984;DHT22;16737;50.932;6.780;2023-04-24T09:23:58;10.20;93.90
9984;DHT22;16737;50.932;6.780;2023-04-24T09:26:29;10.20;94.20
9984;DHT22;16737;50.932;6.780;2023-04-24T09:28:58;10.30;94.00
9984;DHT22;16737;50.932;6.780;2023-04-24T09:31:27;10.30;94.00
9984;DHT22;16737;50.932;6.780;2023-04-24T09:33:56;10.30;94.00
9984;DHT22;16737;50.932;6.780;2023-04-24T09:36:29;10.30;94.00
9984;DHT22;16737;50.932;6.780;2023-04-24T09:38:58;10.40;94.30
9984;DHT22;16737;50.932;6.780;2023-04-24T09:41:28;10.40;94.30
9984;DHT22;16737;50.932;6.780;2023-04-24T09:44:10;10.50;94.40
9984;DHT22;16737;50.932;6.780;2023-04-24T09:46:40;10.50;94.60
9984;DHT22;16737;50.932;6.780;2023-04-24T09:49:13;10.60;94.50
9984;DHT22;16737;50.932;6.780;2023-04-24T09:51:42;10.60;94.70
9984;DHT22;16737;50.932;6.780;2023-04-24T09:54:16;10.70;94.60
9984;DHT22;16737;50.932;6.780;2023-04-24T09:56:48;10.80;95.00
9984;DHT22;16737;50.932;6.780;2023-04-24T09:59:18;10.80;94.90
9984;DHT22;16737;50.932;6.780;2023-04-24T10:01:46;10.80;94.80
9984;DHT22;16737;50.932;6.780;2023-04-24T10:04:19;10.90;94.80
9984;DHT22;16737;50.932;6.780;2023-04-24T10:06:48;11.00;95.00
9984;DHT22;16737;50.932;6.780;2023-04-24T10:09:17;11.00;94.80
9984;DHT22;16737;50.932;6.780;2023-04-24T10:11:49;11.00;94.80
9984;DHT22;16737;50.932;6.780;2023-04-24T10:14:19;11.10;94.90
9984;DHT22;16737;50.932;6.780;2023-04-24T10:16:48;11.10;94.80
9984;DHT22;16737;50.932;6.780;2023-04-24T10:19:16;11.20;94.80
9984;DHT22;16737;50.932;6.780;2023-04-24T10:21:45;11.20;94.90
9984;DHT22;16737;50.932;6.780;2023-04-24T10:24:13;11.30;94.90
9984;DHT22;16737;50.932;6.780;2023-04-24T10:26:41;11.30;95.10
9984;DHT22;16737;50.932;6.780;2023-04-24T10:29:12;11.40;95.10
9984;DHT22;16737;50.932;6.780;2023-04-24T10:31:41;11.40;95.20
9984;DHT22;16737;50.932;6.780;2023-04-24T10:34:10;11.50;95.20
9984;DHT22;16737;50.932;6.780;2023-04-24T10:36:41;11.60;95.30
9984;DHT22;16737;50.932;6.780;2023-04-24T10:39:13;11.60;95.50
9984;DHT22;16737;50.932;6.780;2023-04-24T10:41:41;11.70;95.40
9984;DHT22;16737;50.932;6.780;2023-04-24T10:44:09;11.80;95.40
9984;DHT22;16737;50.932;6.780;2023-04-24T10:46:44;11.80;95.40
9984;DHT22;16737;50.932;6.780;2023-04-24T10:49:13;11.90;95.40
9984;DHT22;16737;50.932;6.780;2023-04-24T10:51:45;12.00;95.40
9984;DHT22;16737;50.932;6.780;2023-04-24T10:54:24;12.00;95.40
9984;DHT22;16737;50.932;6.780;2023-04-24T10:56:52;12.10;95.60
9984;DHT22;16737;50.932;6.780;2023-04-24T10:59:41;12.20;95.40
9984;DHT22;16737;50.932;6.780;2023-04-24T11:02:08;12.20;95.30
9984;DHT22;16737;50.932;6.780;2023-04-24T11:04:35;12.30;95.30
9984;DHT22;16737;50.932;6.780;2023-04-24T11:07:03;12.30;95.10
9984;DHT22;16737;50.932;6.780;2023-04-24T11:09:31;12.40;95.20
9984;DHT22;16737;50.932;6.780;2023-04-24T11:12:05;12.40;95.10
9984;DHT22;16737;50.932;6.780;2023-04-24T11:15:04;12.40;95.20
9984;DHT22;16737;50.932;6.780;2023-04-24T11:17:37;12.50;95.60
9984;DHT22;16737;50.932;6.780;2023-04-24T11:20:07;12.50;95.30
9984;DHT22;16737;50.932;6.780;2023-04-24T11:22:37;12.60;95.40
9984;DHT22;16737;50.932;6.780;2023-04-24T11:25:06;12.60;95.40
9984;DHT22;16737;50.932;6.780;2023-04-24T11:27:39;12.70;95.40
9984;DHT22;16737;50.932;6.780;2023-04-24T11:30:10;12.70;95.40
9984;DHT22;16737;50.932;6.780;2023-04-24T11:32:41;12.80;95.50
9984;DHT22;16737;50.932;6.780;2023-04-24T11:35:14;12.80;95.60
9984;DHT22;16737;50.932;6.780;2023-04-24T11:37:43;12.90;95.70
9984;DHT22;16737;50.932;6.780;2023-04-24T11:40:13;12.90;95.50
9984;DHT22;16737;50.932;6.780;2023-04-24T11:42:43;13.00;95.60
9984;DHT22;16737;50.932;6.780;2023-04-24T11:45:13;13.10;95.60
9984;DHT22;16737;50.932;6.780;2023-04-24T11:47:44;13.10;95.50
9984;DHT22;16737;50.932;6.780;2023-04-24T11:50:12;13.20;95.60
9984;DHT22;16737;50.932;6.780;2023-04-24T11:52:42;13.30;95.70
9984;DHT22;16737;50.932;6.780;2023-04-24T11:55:23;13.40;95.70
9984;DHT22;16737;50.932;6.780;2023-04-24T11:57:54;13.50;95.60
9984;DHT22;16737;50.932;6.780;2023-04-24T12:00:25;13.60;95.50
9984;DHT22;16737;50.932;6.780;2023-04-24T12:03:04;13.70;95.40
9984;DHT22;16737;50.932;6.780;2023-04-24T12:05:32;13.80;95.30
9984;DHT22;16737;50.932;6.780;2023-04-24T12:08:00;13.90;95.20
9984;DHT22;16737;50.932;6.780;2023-04-24T12:10:29;14.00;95.10
9984;DHT22;16737;50.932;6.780;2023-04-24T12:12:58;14.00;94.90
9984;DHT22;16737;50.932;6.780;2023-04-24T12:15:28;14.10;94.90
9984;DHT22;16737;50.932;6.780;2023-04-24T12:17:56;14.10;95.10
9984;DHT22;16737;50.932;6.780;2023-04-24T12:20:35;14.10;94.60
9984;DHT22;16737;50.932;6.780;2023-04-24T12:23:02;14.10;94.40
9984;DHT22;16737;50.932;6.780;2023-04-24T12:25:31;14.10;94.40
9984;DHT22;16737;50.932;6.780;2023-04-24T12:28:09;14.10;94.30
9984;DHT22;16737;50.932;6.780;2023-04-24T12:30:41;14.10;94.20
9984;DHT22;16737;50.932;6.780;2023-04-24T12:33:10;14.20;94.20
9984;DHT22;16737;50.932;6.780;2023-04-24T12:35:40;14.20;94.20
9984;DHT22;16737;50.932;6.780;2023-04-24T12:38:08;14.20;94.10
9984;DHT22;16737;50.932;6.780;2023-04-24T12:40:37;14.20;93.90
9984;DHT22;16737;50.932;6.780;2023-04-24T12:43:13;14.30;93.90
9984;DHT22;16737;50.932;6.780;2023-04-24T12:45:43;14.30;93.80
9984;DHT22;16737;50.932;6.780;2023-04-24T12:48:10;14.30;93.80
9984;DHT22;16737;50.932;6.780;2023-04-24T12:50:38;14.30;93.90
9984;DHT22;16737;50.932;6.780;2023-04-24T12:53:06;14.40;94.10
9984;DHT22;16737;50.932;6.780;2023-04-24T12:55:33;14.50;94.20
9984;DHT22;16737;50.932;6.780;2023-04-24T12:58:00;14.60;94.20
9984;DHT22;16737;50.932;6.780;2023-04-24T13:00:28;14.60;94.20
9984;DHT22;16737;50.932;6.780;2023-04-24T13:02:57;14.80;94.20
9984;DHT22;16737;50.932;6.780;2023-04-24T13:05:24;14.90;94.30
9984;DHT22;16737;50.932;6.780;2023-04-24T13:07:51;15.00;94.30
9984;DHT22;16737;50.932;6.780;2023-04-24T13:10:18;15.10;94.30
9984;DHT22;16737;50.932;6.780;2023-04-24T13:12:45;15.20;94.10
9984;DHT22;16737;50.932;6.780;2023-04-24T13:15:12;15.30;93.90
9984;DHT22;16737;50.932;6.780;2023-04-24T13:17:39;15.40;93.70
9984;DHT22;16737;50.932;6.780;2023-04-24T13:20:08;15.40;93.30
9984;DHT22;16737;50.932;6.780;2023-04-24T13:22:36;15.40;93.10
9984;DHT22;16737;50.932;6.780;2023-04-24T13:25:04;15.40;93.10
9984;DHT22;16737;50.932;6.780;2023-04-24T13:27:32;15.40;93.20
9984;DHT22;16737;50.932;6.780;2023-04-24T13:29:59;15.40;93.20
9984;DHT22;16737;50.932;6.780;2023-04-24T13:32:26;15.40;92.90
9984;DHT22;16737;50.932;6.780;2023-04-24T13:34:54;15.50;92.80
9984;DHT22;16737;50.932;6.780;2023-04-24T13:37:22;15.50;92.90
9984;DHT22;16737;50.932;6.780;2023-04-24T13:39:49;15.50;92.80
9984;DHT22;16737;50.932;6.780;2023-04-24T13:42:16;15.60;92.50
9984;DHT22;16737;50.932;6.780;2023-04-24T13:44:47;15.60;92.40
9984;DHT22;16737;50.932;6.780;2023-04-24T13:47:14;15.60;92.30
9984;DHT22;16737;50.932;6.780;2023-04-24T13:49:40;15.50;92.40
9984;DHT22;16737;50.932;6.780;2023-04-24T13:52:08;15.60;92.50
9984;DHT22;16737;50.932;6.780;2023-04-24T13:54:37;15.60;92.50
9984;DHT22;16737;50.932;6.780;2023-04-24T13:57:04;15.60;92.50
9984;DHT22;16737;50.932;6.780;2023-04-24T13:59:31;15.70;92.50
9984;DHT22;16737;50.932;6.780;2023-04-24T14:01:58;15.70;92.50
9984;DHT22;16737;50.932;6.780;2023-04-24T14:04:26;15.70;92.20
9984;DHT22;16737;50.932;6.780;2023-04-24T14:06:52;15.70;92.10
9984;DHT22;16737;50.932;6.780;2023-04-24T14:09:19;15.70;91.90
9984;DHT22;16737;50.932;6.780;2023-04-24T14:11:48;15.70;92.00
9984;DHT22;16737;50.932;6.780;2023-04-24T14:14:15;15.70;91.90
9984;DHT22;16737;50.932;6.780;2023-04-24T14:16:45;15.70;91.90
9984;DHT22;16737;50.932;6.780;2023-04-24T14:19:12;15.70;91.70
9984;DHT22;16737;50.932;6.780;2023-04-24T14:21:39;15.60;91.70
9984;DHT22;16737;50.932;6.780;2023-04-24T14:24:06;15.60;91.70
9984;DHT22;16737;50.932;6.780;2023-04-24T14:26:37;15.60;91.70
9984;DHT22;16737;50.932;6.780;2023-04-24T14:29:05;15.60;91.70
9984;DHT22;16737;50.932;6.780;2023-04-24T14:31:33;15.60;91.50
9984;DHT22;16737;50.932;6.780;2023-04-24T14:34:00;15.70;91.70
9984;DHT22;16737;50.932;6.780;2023-04-24T14:36:26;15.70;91.70
9984;DHT22;16737;50.932;6.780;2023-04-24T14:38:53;15.70;91.50
9984;DHT22;16737;50.932;6.780;2023-04-24T14:41:20;15.80;91.10
9984;DHT22;16737;50.932;6.780;2023-04-24T14:43:47;15.80;91.20
9984;DHT22;16737;50.932;6.780;2023-04-24T14:46:16;15.80;91.10
9984;DHT22;16737;50.932;6.780;2023-04-24T14:48:43;15.80;90.80
9984;DHT22;16737;50.932;6.780;2023-04-24T14:51:10;15.80;91.00
9984;DHT22;16737;50.932;6.780;2023-04-24T14:53:37;15.80;91.20
9984;DHT22;16737;50.932;6.780;2023-04-24T14:56:04;15.80;91.20
9984;DHT22;16737;50.932;6.780;2023-04-24T14:58:32;15.90;91.20
9984;DHT22;16737;50.932;6.780;2023-04-24T15:00:59;15.90;91.00
9984;DHT22;16737;50.932;6.780;2023-04-24T15:03:27;16.00;90.90
9984;DHT22;16737;50.932;6.780;2023-04-24T15:05:54;16.00;90.80
9984;DHT22;16737;50.932;6.780;2023-04-24T15:08:21;16.00;90.70
9984;DHT22;16737;50.932;6.780;2023-04-24T15:10:49;16.00;90.60
9984;DHT22;16737;50.932;6.780;2023-04-24T15:13:16;16.00;90.60
9984;DHT22;16737;50.932;6.780;2023-04-24T15:15:46;16.00;90.70
9984;DHT22;16737;50.932;6.780;2023-04-24T15:18:13;16.10;90.60
9984;DHT22;16737;50.932;6.780;2023-04-24T15:20:41;16.10;90.60
9984;DHT22;16737;50.932;6.780;2023-04-24T15:23:09;16.20;90.70
9984;DHT22;16737;50.932;6.780;2023-04-24T15:25:36;16.20;90.60
9984;DHT22;16737;50.932;6.780;2023-04-24T15:28:05;16.30;90.40
9984;DHT22;16737;50.932;6.780;2023-04-24T15:30:32;16.20;90.20
9984;DHT22;16737;50.932;6.780;2023-04-24T15:33:00;16.20;90.20
9984;DHT22;16737;50.932;6.780;2023-04-24T15:35:27;16.20;90.10
9984;DHT22;16737;50.932;6.780;2023-04-24T15:37:55;16.20;90.10
9984;DHT22;16737;50.932;6.780;2023-04-24T15:40:23;16.20;89.90
9984;DHT22;16737;50.932;6.780;2023-04-24T15:42:50;16.20;89.90
9984;DHT22;16737;50.932;6.780;2023-04-24T15:45:17;16.20;89.90
9984;DHT22;16737;50.932;6.780;2023-04-24T15:47:44;16.20;90.00
9984;DHT22;16737;50.932;6.780;2023-04-24T15:50:11;16.20;90.00
9984;DHT22;16737;50.932;6.780;2023-04-24T15:52:40;16.20;89.70